sensor_id;sensor_type;location;lat;lon;timestamp;pressure;altitude;pressure_sealevel;temperature;humidity
48874;BME280;66155;46.204;5.220;2023-11-21T00:01:21;98527.09;;;9.13;100.00
48874;BME280;66155;46.204;5.220;2023-11-21T00:06:22;98525.03;;;9.16;100.00
48874;BME280;66155;46.204;5.220;2023-11-21T00:11:22;98525.25;;;9.14;100.00
48874;BME280;66155;46.204;5.220;2023-11-21T00:16:23;98517.16;;;9.10;100.00
48874;BME280;66155;46.204;5.220;2023-11-21T00:21:25;98515.56;;;9.09;100.00
48874;BME280;66155;46.204;5.220;2023-11-21T00:26:26;98520.66;;;8.99;100.00
48874;BME280;66155;46.204;5.220;2023-11-21T00:31:26;98516.72;;;8.97;100.00
48874;BME280;66155;46.204;5.220;2023-11-21T00:36:26;98501.78;;;8.87;100.00
48874;BME280;66155;46.204;5.220;2023-11-21T00:41:28;98515.47;;;8.82;100.00
48874;BME280;66155;46.204;5.220;2023-11-21T00:46:28;98505.63;;;8.84;100.00
48874;BME280;66155;46.204;5.220;2023-11-21T00:51:30;98488.81;;;8.87;100.00
48874;BME280;66155;46.204;5.220;2023-11-21T00:56:30;98476.88;;;8.91;100.00
48874;BME280;66155;46.204;5.220;2023-11-21T01:01:32;98480.81;;;8.93;100.00
48874;BME280;66155;46.204;5.220;2023-11-21T01:06:33;98468.38;;;8.96;100.00
48874;BME280;66155;46.204;5.220;2023-11-21T01:11:34;98473.38;;;9.02;100.00
48874;BME280;66155;46.204;5.220;2023-11-21T01:16:36;98471.22;;;9.16;100.00
48874;BME280;66155;46.204;5.220;2023-11-21T01:21:36;98464.31;;;9.27;100.00
48874;BME280;66155;46.204;5.220;2023-11-21T01:26:37;98466.75;;;9.33;100.00
48874;BME280;66155;46.204;5.220;2023-11-21T01:31:37;98463.16;;;9.40;100.00
48874;BME280;66155;46.204;5.220;2023-11-21T01:36:38;98473.25;;;9.36;100.00
48874;BME280;66155;46.204;5.220;2023-11-21T01:41:38;98468.81;;;9.31;100.00
48874;BME280;66155;46.204;5.220;2023-11-21T01:46:38;98466.31;;;9.20;100.00
48874;BME280;66155;46.204;5.220;2023-11-21T01:51:41;98457.84;;;9.07;100.00
48874;BME280;66155;46.204;5.220;2023-11-21T01:56:41;98469.16;;;8.96;100.00
48874;BME280;66155;46.204;5.220;2023-11-21T02:01:42;98458.88;;;8.84;100.00
48874;BME280;66155;46.204;5.220;2023-11-21T02:06:42;98464.97;;;8.73;100.00
48874;BME280;66155;46.204;5.220;2023-11-21T02:11:43;98475.34;;;8.73;100.00
48874;BME280;66155;46.204;5.220;2023-11-21T02:16:44;98440.56;;;8.74;100.00
48874;BME280;66155;46.204;5.220;2023-11-21T02:21:49;98448.03;;;8.70;100.00
48874;BME280;66155;46.204;5.220;2023-11-21T02:26:50;98444.19;;;8.73;100.00
48874;BME280;66155;46.204;5.220;2023-11-21T02:31:54;98439.91;;;8.84;100.00
48874;BME280;66155;46.204;5.220;2023-11-21T02:36:55;98437.13;;;8.90;100.00
48874;BME280;66155;46.204;5.220;2023-11-21T02:41:57;98443.88;;;8.91;100.00
48874;BME280;66155;46.204;5.220;2023-11-21T02:46:57;98436.09;;;8.91;100.00
48874;BME280;66155;46.204;5.220;2023-11-21T02:51:58;98421.56;;;8.90;100.00
48874;BME280;66155;46.204;5.220;2023-11-21T02:56:58;98423.53;;;8.83;100.00
48874;BME280;66155;46.204;5.220;2023-11-21T03:01:59;98419.66;;;8.86;100.00
48874;BME280;66155;46.204;5.220;2023-11-21T03:06:59;98423.03;;;8.86;100.00
48874;BME280;66155;46.204;5.220;2023-11-21T03:11:59;98413.47;;;8.87;100.00
48874;BME280;66155;46.204;5.220;2023-11-21T03:17:00;98421.34;;;8.75;100.00
48874;BME280;66155;46.204;5.220;2023-11-21T03:22:00;98419.72;;;8.69;100.00
48874;BME280;66155;46.204;5.220;2023-11-21T03:27:01;98415.56;;;8.68;100.00
48874;BME280;66155;46.204;5.220;2023-11-21T03:32:01;98416.31;;;8.68;100.00
48874;BME280;66155;46.204;5.220;2023-11-21T03:37:02;98417.06;;;8.64;100.00
48874;BME280;66155;46.204;5.220;2023-11-21T03:42:02;98414.69;;;8.62;100.00
48874;BME280;66155;46.204;5.220;2023-11-21T03:47:03;98419.34;;;8.60;100.00
48874;BME280;66155;46.204;5.220;2023-11-21T03:52:04;98407.31;;;8.54;100.00
48874;BME280;66155;46.204;5.220;2023-11-21T03:57:04;98417.31;;;8.45;100.00
48874;BME280;66155;46.204;5.220;2023-11-21T04:02:05;98417.09;;;8.47;100.00
48874;BME280;66155;46.204;5.220;2023-11-21T04:07:05;98422.28;;;8.47;100.00
48874;BME280;66155;46.204;5.220;2023-11-21T04:12:06;98420.47;;;8.47;100.00
48874;BME280;66155;46.204;5.220;2023-11-21T04:17:06;98433.44;;;8.47;100.00
48874;BME280;66155;46.204;5.220;2023-11-21T04:22:07;98431.09;;;8.46;100.00
48874;BME280;66155;46.204;5.220;2023-11-21T04:27:07;98431.88;;;8.46;100.00
48874;BME280;66155;46.204;5.220;2023-11-21T04:32:08;98434.94;;;8.43;100.00
48874;BME280;66155;46.204;5.220;2023-11-21T04:37:08;98431.00;;;8.41;100.00
48874;BME280;66155;46.204;5.220;2023-11-21T04:42:10;98440.84;;;8.38;100.00
48874;BME280;66155;46.204;5.220;2023-11-21T04:47:11;98429.88;;;8.36;100.00
48874;BME280;66155;46.204;5.220;2023-11-21T04:52:12;98431.00;;;8.41;100.00
48874;BME280;66155;46.204;5.220;2023-11-21T04:57:12;98423.78;;;8.43;100.00
48874;BME280;66155;46.204;5.220;2023-11-21T05:02:14;98419.13;;;8.45;100.00
48874;BME280;66155;46.204;5.220;2023-11-21T05:07:14;98426.28;;;8.37;100.00
48874;BME280;66155;46.204;5.220;2023-11-21T05:12:16;98430.69;;;8.37;100.00
48874;BME280;66155;46.204;5.220;2023-11-21T05:17:16;98426.03;;;8.39;100.00
48874;BME280;66155;46.204;5.220;2023-11-21T05:22:17;98426.59;;;8.41;100.00
48874;BME280;66155;46.204;5.220;2023-11-21T05:27:17;98428.09;;;8.37;100.00
48874;BME280;66155;46.204;5.220;2023-11-21T05:32:18;98434.38;;;8.41;100.00
48874;BME280;66155;46.204;5.220;2023-11-21T05:37:18;98427.59;;;8.40;100.00
48874;BME280;66155;46.204;5.220;2023-11-21T05:42:19;98434.59;;;8.40;100.00
48874;BME280;66155;46.204;5.220;2023-11-21T05:47:19;98428.09;;;8.37;100.00
48874;BME280;66155;46.204;5.220;2023-11-21T05:52:20;98436.78;;;8.43;100.00
48874;BME280;66155;46.204;5.220;2023-11-21T05:57:21;98429.06;;;8.48;100.00
48874;BME280;66155;46.204;5.220;2023-11-21T06:02:21;98431.72;;;8.53;100.00
48874;BME280;66155;46.204;5.220;2023-11-21T06:07:22;98439.50;;;8.53;100.00
48874;BME280;66155;46.204;5.220;2023-11-21T06:12:22;98439.81;;;8.56;100.00
48874;BME280;66155;46.204;5.220;2023-11-21T06:17:22;98436.19;;;8.57;100.00
48874;BME280;66155;46.204;5.220;2023-11-21T06:22:25;98437.75;;;8.59;100.00
48874;BME280;66155;46.204;5.220;2023-11-21T06:27:25;98430.44;;;8.55;100.00
48874;BME280;66155;46.204;5.220;2023-11-21T06:32:26;98434.47;;;8.46;100.00
48874;BME280;66155;46.204;5.220;2023-11-21T06:37:27;98441.72;;;8.44;100.00
48874;BME280;66155;46.204;5.220;2023-11-21T06:42:27;98440.44;;;8.47;100.00
48874;BME280;66155;46.204;5.220;2023-11-21T06:47:29;98449.03;;;8.47;100.00
48874;BME280;66155;46.204;5.220;2023-11-21T06:52:30;98454.78;;;8.49;100.00
48874;BME280;66155;46.204;5.220;2023-11-21T06:57:31;98450.91;;;8.52;100.00
48874;BME280;66155;46.204;5.220;2023-11-21T07:02:32;98460.06;;;8.54;100.00
48874;BME280;66155;46.204;5.220;2023-11-21T07:07:33;98468.06;;;8.53;100.00
48874;BME280;66155;46.204;5.220;2023-11-21T07:12:35;98458.53;;;8.59;100.00
48874;BME280;66155;46.204;5.220;2023-11-21T07:17:36;98455.53;;;8.67;100.00
48874;BME280;66155;46.204;5.220;2023-11-21T07:22:37;98461.59;;;8.72;100.00
48874;BME280;66155;46.204;5.220;2023-11-21T07:27:37;98461.09;;;8.75;100.00
48874;BME280;66155;46.204;5.220;2023-11-21T07:32:38;98455.56;;;8.89;100.00
48874;BME280;66155;46.204;5.220;2023-11-21T07:37:39;98457.78;;;9.02;100.00
48874;BME280;66155;46.204;5.220;2023-11-21T07:42:40;98456.09;;;9.13;100.00
48874;BME280;66155;46.204;5.220;2023-11-21T07:47:42;98459.31;;;9.20;100.00
48874;BME280;66155;46.204;5.220;2023-11-21T07:52:43;98461.34;;;9.18;100.00
48874;BME280;66155;46.204;5.220;2023-11-21T07:57:43;98468.31;;;9.12;100.00
48874;BME280;66155;46.204;5.220;2023-11-21T08:02:43;98478.31;;;9.21;100.00
48874;BME280;66155;46.204;5.220;2023-11-21T08:07:46;98471.75;;;9.18;100.00
48874;BME280;66155;46.204;5.220;2023-11-21T08:12:46;98481.19;;;9.02;100.00
48874;BME280;66155;46.204;5.220;2023-11-21T08:17:48;98481.44;;;9.01;100.00
48874;BME280;66155;46.204;5.220;2023-11-21T08:22:48;98489.53;;;9.04;100.00
48874;BME280;66155;46.204;5.220;2023-11-21T08:27:49;98497.28;;;8.99;100.00
48874;BME280;66155;46.204;5.220;2023-11-21T08:32:49;98495.94;;;8.97;100.00
48874;BME280;66155;46.204;5.220;2023-11-21T08:37:52;98505.22;;;8.92;100.00
48874;BME280;66155;46.204;5.220;2023-11-21T08:42:56;98502.09;;;8.90;100.00
48874;BME280;66155;46.204;5.220;2023-11-21T08:47:58;98499.72;;;8.89;100.00
48874;BME280;66155;46.204;5.220;2023-11-21T08:52:59;98507.28;;;8.90;100.00
48874;BME280;66155;46.204;5.220;2023-11-21T08:57:59;98492.78;;;8.94;100.00
48874;BME280;66155;46.204;5.220;2023-11-21T09:03:01;98495.69;;;8.98;100.00
48874;BME280;66155;46.204;5.220;2023-11-21T09:08:02;98496.06;;;9.07;100.00
48874;BME280;66155;46.204;5.220;2023-11-21T09:13:03;98498.44;;;9.08;100.00
48874;BME280;66155;46.204;5.220;2023-11-21T09:18:03;98495.09;;;9.13;100.00
48874;BME280;66155;46.204;5.220;2023-11-21T09:23:05;98512.97;;;9.09;100.00
48874;BME280;66155;46.204;5.220;2023-11-21T09:28:05;98518.13;;;9.04;100.00
48874;BME280;66155;46.204;5.220;2023-11-21T09:33:08;98510.38;;;9.09;100.00
48874;BME280;66155;46.204;5.220;2023-11-21T09:38:10;98522.34;;;9.10;100.00
48874;BME280;66155;46.204;5.220;2023-11-21T09:43:17;98530.69;;;9.12;100.00
48874;BME280;66155;46.204;5.220;2023-11-21T09:48:19;98535.19;;;9.17;100.00
48874;BME280;66155;46.204;5.220;2023-11-21T09:53:21;98537.84;;;9.22;100.00
48874;BME280;66155;46.204;5.220;2023-11-21T09:58:22;98536.94;;;9.33;100.00
48874;BME280;66155;46.204;5.220;2023-11-21T10:03:24;98538.09;;;9.43;100.00
48874;BME280;66155;46.204;5.220;2023-11-21T10:08:25;98534.72;;;9.42;100.00
48874;BME280;66155;46.204;5.220;2023-11-21T10:13:28;98530.53;;;9.41;100.00
48874;BME280;66155;46.204;5.220;2023-11-21T10:18:32;98531.25;;;9.37;100.00
48874;BME280;66155;46.204;5.220;2023-11-21T10:23:34;98535.72;;;9.41;100.00
48874;BME280;66155;46.204;5.220;2023-11-21T10:28:37;98523.63;;;9.52;100.00
48874;BME280;66155;46.204;5.220;2023-11-21T10:33:39;98515.69;;;9.64;100.00
48874;BME280;66155;46.204;5.220;2023-11-21T10:38:42;98514.97;;;9.68;100.00
48874;BME280;66155;46.204;5.220;2023-11-21T10:43:43;98525.69;;;9.72;100.00
48874;BME280;66155;46.204;5.220;2023-11-21T10:48:44;98520.53;;;9.77;100.00
48874;BME280;66155;46.204;5.220;2023-11-21T10:53:45;98521.00;;;9.74;100.00
48874;BME280;66155;46.204;5.220;2023-11-21T10:58:46;98516.09;;;9.78;100.00
48874;BME280;66155;46.204;5.220;2023-11-21T11:03:46;98516.69;;;9.85;100.00
48874;BME280;66155;46.204;5.220;2023-11-21T11:08:47;98521.00;;;10.01;100.00
48874;BME280;66155;46.204;5.220;2023-11-21T11:13:49;98511.19;;;10.08;100.00
48874;BME280;66155;46.204;5.220;2023-11-21T11:18:50;98510.88;;;10.05;100.00
48874;BME280;66155;46.204;5.220;2023-11-21T11:34:30;98508.59;;;9.81;100.00
48874;BME280;66155;46.204;5.220;2023-11-21T11:39:38;98505.56;;;9.89;100.00
48874;BME280;66155;46.204;5.220;2023-11-21T11:50:07;98506.59;;;9.88;100.00
48874;BME280;66155;46.204;5.220;2023-11-21T11:55:14;98499.06;;;9.92;100.00
48874;BME280;66155;46.204;5.220;2023-11-21T12:05:32;98490.94;;;10.16;100.00
48874;BME280;66155;46.204;5.220;2023-11-21T12:10:35;98494.75;;;10.35;100.00
48874;BME280;66155;46.204;5.220;2023-11-21T12:15:37;98494.06;;;10.45;100.00
48874;BME280;66155;46.204;5.220;2023-11-21T12:20:38;98497.69;;;10.44;100.00
48874;BME280;66155;46.204;5.220;2023-11-21T12:25:39;98496.91;;;10.43;100.00
48874;BME280;66155;46.204;5.220;2023-11-21T12:30:39;98496.41;;;10.46;100.00
48874;BME280;66155;46.204;5.220;2023-11-21T12:35:40;98484.09;;;10.37;100.00
48874;BME280;66155;46.204;5.220;2023-11-21T12:40:40;98493.38;;;10.27;100.00
48874;BME280;66155;46.204;5.220;2023-11-21T12:45:41;98488.81;;;10.40;100.00
48874;BME280;66155;46.204;5.220;2023-11-21T12:50:41;98502.50;;;11.10;100.00
48874;BME280;66155;46.204;5.220;2023-11-21T12:55:43;98508.94;;;11.50;100.00
48874;BME280;66155;46.204;5.220;2023-11-21T13:00:50;98518.72;;;11.17;100.00
48874;BME280;66155;46.204;5.220;2023-11-21T13:05:53;98511.25;;;10.89;100.00
48874;BME280;66155;46.204;5.220;2023-11-21T13:10:57;98514.81;;;10.72;100.00
48874;BME280;66155;46.204;5.220;2023-11-21T13:16:01;98524.16;;;10.63;100.00
48874;BME280;66155;46.204;5.220;2023-11-21T13:21:05;98529.81;;;10.55;100.00
48874;BME280;66155;46.204;5.220;2023-11-21T13:26:18;98523.00;;;10.49;100.00
48874;BME280;66155;46.204;5.220;2023-11-21T13:31:20;98521.91;;;10.44;100.00
48874;BME280;66155;46.204;5.220;2023-11-21T13:36:23;98525.56;;;10.81;100.00
48874;BME280;66155;46.204;5.220;2023-11-21T13:41:23;98533.91;;;11.31;100.00
48874;BME280;66155;46.204;5.220;2023-11-21T13:46:30;98536.88;;;11.65;100.00
48874;BME280;66155;46.204;5.220;2023-11-21T13:51:37;98525.34;;;11.51;100.00
48874;BME280;66155;46.204;5.220;2023-11-21T13:56:41;98529.16;;;11.22;100.00
48874;BME280;66155;46.204;5.220;2023-11-21T14:01:44;98536.38;;;11.00;100.00
48874;BME280;66155;46.204;5.220;2023-11-21T14:06:59;98543.31;;;10.84;100.00
48874;BME280;66155;46.204;5.220;2023-11-21T14:18:08;98542.59;;;10.02;100.00
48874;BME280;66155;46.204;5.220;2023-11-21T14:23:10;98541.44;;;9.87;100.00
48874;BME280;66155;46.204;5.220;2023-11-21T14:28:11;98548.34;;;9.77;100.00
48874;BME280;66155;46.204;5.220;2023-11-21T14:33:12;98549.75;;;9.62;100.00
48874;BME280;66155;46.204;5.220;2023-11-21T14:38:13;98560.63;;;9.59;100.00
48874;BME280;66155;46.204;5.220;2023-11-21T14:43:14;98559.56;;;9.55;100.00
48874;BME280;66155;46.204;5.220;2023-11-21T14:48:14;98561.00;;;9.46;100.00
48874;BME280;66155;46.204;5.220;2023-11-21T14:53:29;98564.91;;;9.43;100.00
48874;BME280;66155;46.204;5.220;2023-11-21T14:58:54;98577.47;;;9.51;100.00
48874;BME280;66155;46.204;5.220;2023-11-21T15:03:56;98589.91;;;9.71;100.00
48874;BME280;66155;46.204;5.220;2023-11-21T15:08:57;98590.59;;;9.62;100.00
48874;BME280;66155;46.204;5.220;2023-11-21T15:14:20;98593.31;;;9.50;100.00
48874;BME280;66155;46.204;5.220;2023-11-21T15:19:25;98596.66;;;9.45;100.00
48874;BME280;66155;46.204;5.220;2023-11-21T15:24:26;98603.09;;;9.43;100.00
48874;BME280;66155;46.204;5.220;2023-11-21T15:29:27;98619.44;;;9.38;100.00
48874;BME280;66155;46.204;5.220;2023-11-21T15:34:28;98624.78;;;9.31;100.00
48874;BME280;66155;46.204;5.220;2023-11-21T15:39:30;98633.31;;;9.27;100.00
48874;BME280;66155;46.204;5.220;2023-11-21T15:44:30;98629.06;;;9.21;100.00
48874;BME280;66155;46.204;5.220;2023-11-21T15:49:33;98622.75;;;9.17;100.00
48874;BME280;66155;46.204;5.220;2023-11-21T15:54:38;98635.94;;;9.10;100.00
48874;BME280;66155;46.204;5.220;2023-11-21T15:59:40;98629.56;;;9.01;100.00
48874;BME280;66155;46.204;5.220;2023-11-21T16:04:42;98637.19;;;8.90;100.00
48874;BME280;66155;46.204;5.220;2023-11-21T16:09:42;98637.44;;;8.89;100.00
48874;BME280;66155;46.204;5.220;2023-11-21T16:14:43;98638.22;;;8.89;100.00
48874;BME280;66155;46.204;5.220;2023-11-21T16:19:47;98647.03;;;8.88;100.00
48874;BME280;66155;46.204;5.220;2023-11-21T16:24:47;98657.19;;;8.90;100.00
48874;BME280;66155;46.204;5.220;2023-11-21T16:29:48;98671.44;;;8.87;100.00
48874;BME280;66155;46.204;5.220;2023-11-21T16:34:48;98666.06;;;8.77;100.00
48874;BME280;66155;46.204;5.220;2023-11-21T16:39:49;98671.66;;;8.69;100.00
48874;BME280;66155;46.204;5.220;2023-11-21T16:44:49;98682.66;;;8.59;100.00
48874;BME280;66155;46.204;5.220;2023-11-21T16:49:50;98690.13;;;8.55;100.00
48874;BME280;66155;46.204;5.220;2023-11-21T16:54:51;98706.47;;;8.56;100.00
48874;BME280;66155;46.204;5.220;2023-11-21T16:59:51;98700.97;;;8.52;100.00
48874;BME280;66155;46.204;5.220;2023-11-21T17:04:52;98699.97;;;8.53;100.00
48874;BME280;66155;46.204;5.220;2023-11-21T17:09:53;98707.97;;;8.52;100.00
48874;BME280;66155;46.204;5.220;2023-11-21T17:14:53;98711.25;;;8.47;100.00
48874;BME280;66155;46.204;5.220;2023-11-21T17:19:54;98736.66;;;8.45;100.00
48874;BME280;66155;46.204;5.220;2023-11-21T17:24:54;98726.50;;;8.44;100.00
48874;BME280;66155;46.204;5.220;2023-11-21T17:29:55;98735.34;;;8.43;100.00
48874;BME280;66155;46.204;5.220;2023-11-21T17:34:56;98742.34;;;8.42;100.00
48874;BME280;66155;46.204;5.220;2023-11-21T17:39:57;98753.50;;;8.43;100.00
48874;BME280;66155;46.204;5.220;2023-11-21T17:44:57;98748.50;;;8.41;100.00
48874;BME280;66155;46.204;5.220;2023-11-21T17:49:58;98768.50;;;8.41;100.00
48874;BME280;66155;46.204;5.220;2023-11-21T17:54:58;98767.47;;;8.42;100.00
48874;BME280;66155;46.204;5.220;2023-11-21T17:59:59;98769.63;;;8.33;100.00
48874;BME280;66155;46.204;5.220;2023-11-21T18:04:59;98778.44;;;8.32;100.00
48874;BME280;66155;46.204;5.220;2023-11-21T18:10:01;98776.88;;;8.31;100.00
48874;BME280;66155;46.204;5.220;2023-11-21T18:15:01;98782.19;;;8.24;100.00
48874;BME280;66155;46.204;5.220;2023-11-21T18:20:06;98787.50;;;8.17;100.00
48874;BME280;66155;46.204;5.220;2023-11-21T18:25:07;98799.13;;;8.15;100.00
48874;BME280;66155;46.204;5.220;2023-11-21T18:30:08;98793.16;;;8.14;100.00
48874;BME280;66155;46.204;5.220;2023-11-21T18:35:08;98798.34;;;8.14;100.00
48874;BME280;66155;46.204;5.220;2023-11-21T18:40:10;98801.16;;;8.13;100.00
48874;BME280;66155;46.204;5.220;2023-11-21T18:45:10;98801.16;;;8.13;100.00
48874;BME280;66155;46.204;5.220;2023-11-21T18:50:15;98816.38;;;8.09;100.00
48874;BME280;66155;46.204;5.220;2023-11-21T18:55:17;98815.38;;;7.98;100.00
48874;BME280;66155;46.204;5.220;2023-11-21T19:00:18;98818.41;;;7.95;100.00
48874;BME280;66155;46.204;5.220;2023-11-21T19:05:18;98827.78;;;7.96;100.00
48874;BME280;66155;46.204;5.220;2023-11-21T19:10:20;98831.16;;;7.97;100.00
48874;BME280;66155;46.204;5.220;2023-11-21T19:15:22;98839.66;;;7.92;100.00
48874;BME280;66155;46.204;5.220;2023-11-21T19:20:22;98840.31;;;7.88;100.00
48874;BME280;66155;46.204;5.220;2023-11-21T19:25:23;98846.84;;;7.78;100.00
48874;BME280;66155;46.204;5.220;2023-11-21T19:30:24;98848.28;;;7.74;100.00
48874;BME280;66155;46.204;5.220;2023-11-21T19:35:24;98851.91;;;7.73;100.00
48874;BME280;66155;46.204;5.220;2023-11-21T19:40:26;98852.34;;;7.70;100.00
48874;BME280;66155;46.204;5.220;2023-11-21T19:45:27;98866.34;;;7.69;100.00
48874;BME280;66155;46.204;5.220;2023-11-21T19:50:32;98873.88;;;7.71;100.00
48874;BME280;66155;46.204;5.220;2023-11-21T19:55:33;98874.81;;;7.76;100.00
48874;BME280;66155;46.204;5.220;2023-11-21T20:00:33;98886.19;;;7.75;100.00
48874;BME280;66155;46.204;5.220;2023-11-21T20:05:34;98893.41;;;7.73;100.00
48874;BME280;66155;46.204;5.220;2023-11-21T20:10:35;98913.81;;;7.70;100.00
48874;BME280;66155;46.204;5.220;2023-11-21T20:15:36;98907.03;;;7.69;100.00
48874;BME280;66155;46.204;5.220;2023-11-21T20:20:36;98907.72;;;7.64;100.00
48874;BME280;66155;46.204;5.220;2023-11-21T20:25:36;98912.31;;;7.62;100.00
48874;BME280;66155;46.204;5.220;2023-11-21T20:30:37;98918.72;;;7.59;100.00
48874;BME280;66155;46.204;5.220;2023-11-21T20:35:38;98932.47;;;7.60;100.00
48874;BME280;66155;46.204;5.220;2023-11-21T20:40:42;98930.69;;;7.60;100.00
48874;BME280;66155;46.204;5.220;2023-11-21T20:45:43;98930.09;;;7.58;100.00
48874;BME280;66155;46.204;5.220;2023-11-21T20:50:43;98930.91;;;7.59;100.00
48874;BME280;66155;46.204;5.220;2023-11-21T20:55:43;98947.47;;;7.58;100.00
48874;BME280;66155;46.204;5.220;2023-11-21T21:00:49;98952.66;;;7.58;100.00
48874;BME280;66155;46.204;5.220;2023-11-21T21:05:49;98951.88;;;7.57;100.00
48874;BME280;66155;46.204;5.220;2023-11-21T21:10:50;98943.97;;;7.52;100.00
48874;BME280;66155;46.204;5.220;2023-11-21T21:15:50;98949.34;;;7.51;100.00
48874;BME280;66155;46.204;5.220;2023-11-21T21:20:50;98943.59;;;7.49;100.00
48874;BME280;66155;46.204;5.220;2023-11-21T21:25:51;98940.22;;;7.48;100.00
48874;BME280;66155;46.204;5.220;2023-11-21T21:30:53;98937.63;;;7.48;100.00
48874;BME280;66155;46.204;5.220;2023-11-21T21:35:53;98944.25;;;7.44;100.00
48874;BME280;66155;46.204;5.220;2023-11-21T21:40:54;98954.28;;;7.40;100.00
48874;BME280;66155;46.204;5.220;2023-11-21T21:45:55;98962.50;;;7.37;100.00
48874;BME280;66155;46.204;5.220;2023-11-21T21:50:56;98967.69;;;7.37;100.00
48874;BME280;66155;46.204;5.220;2023-11-21T21:55:56;98960.69;;;7.38;100.00
48874;BME280;66155;46.204;5.220;2023-11-21T22:00:57;98963.50;;;7.36;100.00
48874;BME280;66155;46.204;5.220;2023-11-21T22:05:58;98955.59;;;7.31;100.00
48874;BME280;66155;46.204;5.220;2023-11-21T22:10:58;98946.88;;;7.26;100.00
48874;BME280;66155;46.204;5.220;2023-11-21T22:15:59;98974.47;;;7.20;100.00
48874;BME280;66155;46.204;5.220;2023-11-21T22:20:59;98974.09;;;7.16;100.00
48874;BME280;66155;46.204;5.220;2023-11-21T22:25:59;98980.28;;;7.15;100.00
48874;BME280;66155;46.204;5.220;2023-11-21T22:31:00;98980.13;;;7.10;100.00
48874;BME280;66155;46.204;5.220;2023-11-21T22:36:01;98988.00;;;7.03;100.00
48874;BME280;66155;46.204;5.220;2023-11-21T22:41:01;98991.22;;;6.99;100.00
48874;BME280;66155;46.204;5.220;2023-11-21T22:46:03;98992.06;;;6.93;100.00
48874;BME280;66155;46.204;5.220;2023-11-21T22:51:04;98991.59;;;6.84;100.00
48874;BME280;66155;46.204;5.220;2023-11-21T22:56:04;98987.03;;;6.79;100.00
48874;BME280;66155;46.204;5.220;2023-11-21T23:01:05;98985.06;;;6.75;100.00
48874;BME280;66155;46.204;5.220;2023-11-21T23:06:06;98983.50;;;6.74;100.00
48874;BME280;66155;46.204;5.220;2023-11-21T23:11:06;98983.72;;;6.72;100.00
48874;BME280;66155;46.204;5.220;2023-11-21T23:16:07;98981.34;;;6.71;100.00
48874;BME280;66155;46.204;5.220;2023-11-21T23:21:07;98994.66;;;6.74;100.00
48874;BME280;66155;46.204;5.220;2023-11-21T23:26:14;98996.63;;;6.79;100.00
48874;BME280;66155;46.204;5.220;2023-11-21T23:31:15;99011.06;;;6.87;100.00
48874;BME280;66155;46.204;5.220;2023-11-21T23:36:15;99003.25;;;6.93;100.00
48874;BME280;66155;46.204;5.220;2023-11-21T23:41:17;98997.19;;;6.99;100.00
48874;BME280;66155;46.204;5.220;2023-11-21T23:46:18;98997.34;;;7.04;100.00
48874;BME280;66155;46.204;5.220;2023-11-21T23:51:19;99014.28;;;7.07;100.00
48874;BME280;66155;46.204;5.220;2023-11-21T23:56:19;99013.81;;;7.10;100.00
